Time;durP1;ratioP1;P1;durP2;ratioP2;P2;SDS_P1;SDS_P2;PMS_P1;PMS_P2;Temp;Humidity;BMP_temperature;BMP_pressure;BME280_temperature;BME280_humidity;BME280_pressure;Samples;Min_cycle;Max_cycle;Signal;HPM_P1;HPM_P2
2022/05/26 00:01:40;;;;;;;9.10;2.28;;;;;;;15.08;100.00;101405.06;5077658;28;20115;-82
2022/05/26 00:04:06;;;;;;;7.68;2.00;;;;;;;15.12;100.00;101403.78;5047135;28;20081;-83
2022/05/26 00:06:33;;;;;;;8.55;2.13;;;;;;;15.09;100.00;101408.72;5046847;28;20039;-83
2022/05/26 00:09:00;;;;;;;5.13;2.00;;;;;;;15.00;100.00;101396.59;5063536;28;20040;-82
2022/05/26 00:11:31;;;;;;;3.70;2.00;;;;;;;14.94;100.00;101398.03;5043503;28;20459;-84
2022/05/26 00:13:58;;;;;;;5.55;2.00;;;;;;;14.85;100.00;101390.56;5079054;28;20033;-83
2022/05/26 00:16:24;;;;;;;2.55;1.90;;;;;;;14.90;100.00;101380.00;5075461;28;20049;-85
2022/05/26 00:18:53;;;;;;;3.35;2.00;;;;;;;14.99;100.00;101394.88;5077844;28;20104;-85
2022/05/26 00:21:19;;;;;;;9.68;1.95;;;;;;;15.01;100.00;101399.22;5062294;28;20033;-83
2022/05/26 00:23:45;;;;;;;6.25;1.90;;;;;;;14.96;100.00;101400.66;5039401;28;20456;-84
2022/05/26 00:26:11;;;;;;;8.23;2.10;;;;;;;14.96;100.00;101403.41;5061294;28;20027;-84
2022/05/26 00:28:37;;;;;;;6.43;2.30;;;;;;;14.93;100.00;101387.13;5060919;28;20050;-83
2022/05/26 00:31:02;;;;;;;9.45;2.03;;;;;;;14.87;100.00;101396.81;5079202;28;20033;-83
2022/05/26 00:33:28;;;;;;;4.60;2.17;;;;;;;14.80;100.00;101392.84;5044279;28;20048;-83
2022/05/26 00:35:54;;;;;;;10.68;2.00;;;;;;;14.84;100.00;101406.25;5075429;28;20043;-83
2022/05/26 00:38:21;;;;;;;5.50;1.80;;;;;;;14.84;100.00;101397.09;5093642;28;20081;-82
2022/05/26 00:40:47;;;;;;;9.63;2.58;;;;;;;14.83;100.00;101400.88;5080311;28;20033;-82
2022/05/26 00:43:13;;;;;;;7.03;1.98;;;;;;;14.74;100.00;101402.56;5059730;28;20035;-82
2022/05/26 00:45:54;;;;;;;7.18;2.30;;;;;;;14.78;100.00;101400.41;5076610;28;20036;-83
2022/05/26 00:48:24;;;;;;;9.43;2.58;;;;;;;14.67;100.00;101395.81;5067857;28;20355;-82
2022/05/26 00:51:01;;;;;;;8.27;2.20;;;;;;;14.73;100.00;101400.81;5082159;28;20097;-82
2022/05/26 00:53:34;;;;;;;7.25;2.25;;;;;;;14.88;100.00;101407.69;5081719;28;20050;-83
2022/05/26 00:56:32;;;;;;;8.10;2.13;;;;;;;14.81;100.00;101397.38;5090215;28;20421;-83
2022/05/26 00:59:05;;;;;;;4.57;1.88;;;;;;;14.78;100.00;101408.66;5111432;28;20039;-84
2022/05/26 01:01:30;;;;;;;9.90;2.80;;;;;;;14.77;100.00;101402.25;5105267;28;20035;-83
2022/05/26 01:04:01;;;;;;;8.90;2.22;;;;;;;14.84;100.00;101410.91;5080790;28;20378;-82
2022/05/26 01:06:35;;;;;;;8.63;2.13;;;;;;;14.84;100.00;101408.13;5083084;28;20037;-83
2022/05/26 01:09:04;;;;;;;7.25;2.63;;;;;;;14.76;100.00;101407.91;5094018;28;20041;-82
2022/05/26 01:11:32;;;;;;;6.40;2.13;;;;;;;14.79;100.00;101413.16;5092813;28;20031;-82
2022/05/26 01:14:07;;;;;;;11.38;1.90;;;;;;;14.88;100.00;101412.34;5084792;28;20082;-82
2022/05/26 01:16:43;;;;;;;9.95;2.28;;;;;;;14.75;100.00;101404.28;5087071;28;20433;-82
2022/05/26 01:19:30;;;;;;;9.05;2.22;;;;;;;14.69;100.00;101407.56;5097724;28;20032;-81
2022/05/26 01:22:21;;;;;;;6.97;2.35;;;;;;;14.72;100.00;101409.19;5096455;28;20040;-82
2022/05/26 01:25:22;;;;;;;8.48;2.50;;;;;;;14.80;100.00;101403.88;5076908;28;20086;-84
2022/05/26 01:28:17;;;;;;;9.23;2.25;;;;;;;14.76;100.00;101416.19;5068377;28;20036;-83
2022/05/26 01:30:51;;;;;;;11.82;2.50;;;;;;;14.70;100.00;101414.84;5078333;28;20093;-83
2022/05/26 01:33:42;;;;;;;12.95;2.80;;;;;;;14.61;100.00;101404.63;5080679;28;20039;-81
2022/05/26 01:36:33;;;;;;;8.82;2.17;;;;;;;14.65;100.00;101412.50;5077737;28;20047;-83
2022/05/26 01:39:16;;;;;;;13.57;2.95;;;;;;;14.68;100.00;101411.38;5080490;28;20024;-82
2022/05/26 01:41:54;;;;;;;10.77;3.45;;;;;;;14.61;100.00;101412.88;5121313;27;20091;-83
2022/05/26 01:44:29;;;;;;;9.27;2.40;;;;;;;14.72;100.00;101418.34;5099903;28;20040;-82
2022/05/26 01:46:59;;;;;;;5.82;2.60;;;;;;;14.82;100.00;101426.66;5100007;28;20060;-82
2022/05/26 01:49:42;;;;;;;13.32;3.45;;;;;;;14.80;100.00;101417.66;5105598;28;20044;-82
2022/05/26 01:52:19;;;;;;;10.18;2.70;;;;;;;14.75;100.00;101429.09;5085804;28;20131;-82
2022/05/26 01:54:53;;;;;;;11.50;3.03;;;;;;;14.67;100.00;101428.91;5087251;28;20038;-83
2022/05/26 01:57:49;;;;;;;14.80;2.63;;;;;;;14.68;100.00;101431.53;5085560;28;20032;-83
2022/05/26 02:00:18;;;;;;;11.90;2.95;;;;;;;14.72;100.00;101428.50;5103268;27;20027;-83
2022/05/26 02:02:56;;;;;;;10.00;3.00;;;;;;;14.77;100.00;101435.34;5103259;27;20035;-82
2022/05/26 02:05:26;;;;;;;14.80;3.42;;;;;;;14.67;100.00;101432.50;5116513;28;20034;-83
2022/05/26 02:07:58;;;;;;;11.50;3.45;;;;;;;14.80;100.00;101432.31;5120545;28;20046;-82
2022/05/26 02:10:59;;;;;;;8.77;2.72;;;;;;;14.67;100.00;101437.16;5101103;28;20030;-81
2022/05/26 02:13:44;;;;;;;12.18;3.20;;;;;;;14.66;100.00;101435.44;5097017;28;20123;-82
2022/05/26 02:16:15;;;;;;;16.17;3.78;;;;;;;14.73;100.00;101449.56;5073897;28;20035;-81
2022/05/26 02:18:48;;;;;;;18.42;3.55;;;;;;;14.82;100.00;101451.47;5120341;27;20083;-82
2022/05/26 02:21:34;;;;;;;12.35;4.63;;;;;;;14.49;100.00;101450.63;5091398;28;20412;-82
2022/05/26 02:24:09;;;;;;;13.95;4.50;;;;;;;14.51;100.00;101457.78;5104702;27;20031;-81
2022/05/26 02:26:36;;;;;;;15.93;4.72;;;;;;;14.22;100.00;101459.41;5118955;27;20080;-81
2022/05/26 02:31:48;;;;;;;11.98;5.82;;;;;;;14.33;100.00;101459.31;5113354;27;20035;-82
2022/05/26 02:34:14;;;;;;;15.32;5.35;;;;;;;14.29;100.00;101458.72;5084870;28;20451;-82
2022/05/26 02:36:42;;;;;;;19.48;5.28;;;;;;;14.32;100.00;101465.88;5085845;27;20038;-83
2022/05/26 02:39:07;;;;;;;22.88;5.55;;;;;;;14.05;100.00;101464.44;5103346;28;20038;-83
2022/05/26 02:41:34;;;;;;;15.90;5.95;;;;;;;14.12;100.00;101468.44;5085094;28;20051;-83
2022/05/26 02:44:00;;;;;;;17.75;5.68;;;;;;;14.19;100.00;101457.75;5100742;28;20027;-81
2022/05/26 02:46:26;;;;;;;23.02;6.25;;;;;;;14.04;100.00;101468.19;5085847;28;20478;-84
2022/05/26 02:49:29;;;;;;;19.65;5.80;;;;;;;14.07;100.00;101467.94;5111799;27;20015;-83
2022/05/26 02:52:25;;;;;;;21.73;5.53;;;;;;;14.10;100.00;101472.28;5101501;28;20159;-83
2022/05/26 02:55:08;;;;;;;16.58;5.80;;;;;;;14.14;100.00;101476.56;5112466;28;20031;-84
2022/05/26 02:57:37;;;;;;;18.23;5.85;;;;;;;14.12;100.00;101468.44;5083386;28;20047;-83
2022/05/26 03:00:22;;;;;;;14.43;6.43;;;;;;;14.09;100.00;101476.94;5119803;27;20072;-84
2022/05/26 03:03:05;;;;;;;18.33;6.93;;;;;;;14.10;100.00;101472.28;5102875;28;20475;-84
2022/05/26 03:05:41;;;;;;;18.88;6.70;;;;;;;14.15;100.00;101476.44;5098576;28;20491;-81
2022/05/26 03:08:11;;;;;;;24.23;7.60;;;;;;;14.09;100.00;101471.44;5071990;28;20032;-83
2022/05/26 03:10:37;;;;;;;23.38;7.82;;;;;;;14.20;100.00;101470.53;5085437;27;20052;-83
2022/05/26 03:13:03;;;;;;;22.00;8.43;;;;;;;14.16;100.00;101471.78;5073973;28;20046;-82
2022/05/26 03:15:31;;;;;;;19.10;7.55;;;;;;;14.11;100.00;101474.06;5070390;28;20031;-83
2022/05/26 03:17:59;;;;;;;14.40;6.97;;;;;;;14.17;100.00;101468.03;5086935;28;20111;-83
2022/05/26 03:20:25;;;;;;;26.35;8.10;;;;;;;14.08;100.00;101477.06;5096969;28;20036;-82
2022/05/26 03:22:51;;;;;;;26.52;7.82;;;;;;;14.08;100.00;101480.69;5087276;27;20039;-82
2022/05/26 03:25:16;;;;;;;17.58;7.53;;;;;;;14.01;100.00;101479.47;5102242;28;20391;-81
2022/05/26 03:27:43;;;;;;;20.77;6.95;;;;;;;13.95;100.00;101469.84;5086933;27;20067;-82
2022/05/26 03:30:09;;;;;;;25.25;8.55;;;;;;;13.99;100.00;101473.22;5073627;28;20058;-81
2022/05/26 03:32:34;;;;;;;20.85;7.43;;;;;;;14.12;100.00;101484.94;5082810;27;20055;-82
2022/05/26 03:40:51;;;;;;;21.23;7.28;;;;;;;14.20;100.00;101487.06;5000881;28;20046;-83
2022/05/26 03:43:18;;;;;;;27.80;8.52;;;;;;;14.24;100.00;101491.28;5062711;28;20058;-82
2022/05/26 03:45:44;;;;;;;25.80;7.38;;;;;;;14.00;100.00;101485.97;5067451;28;20039;-81
2022/05/26 03:48:10;;;;;;;21.25;7.53;;;;;;;14.02;100.00;101497.75;5100019;28;20209;-81
2022/05/26 03:50:36;;;;;;;26.55;8.40;;;;;;;14.16;100.00;101491.06;5098428;28;20180;-81
2022/05/26 03:53:02;;;;;;;27.02;8.32;;;;;;;14.09;100.00;101504.47;5081941;27;20034;-83
2022/05/26 03:55:28;;;;;;;17.67;7.68;;;;;;;14.08;100.00;101502.72;5069650;28;20032;-84
2022/05/26 03:57:54;;;;;;;31.20;8.40;;;;;;;14.03;100.00;101516.00;5068464;28;20039;-83
2022/05/26 04:00:22;;;;;;;28.75;9.82;;;;;;;14.10;100.00;101517.25;5075678;28;20087;-82
2022/05/26 04:02:48;;;;;;;22.20;8.57;;;;;;;14.18;100.00;101519.34;5067010;28;20031;-82
2022/05/26 04:05:14;;;;;;;26.17;8.88;;;;;;;14.28;100.00;101509.31;5083985;28;20047;-82
2022/05/26 04:07:40;;;;;;;23.45;8.43;;;;;;;14.12;100.00;101517.13;5085738;28;20051;-82
2022/05/26 04:10:09;;;;;;;27.98;8.52;;;;;;;14.20;100.00;101525.63;5082855;28;20024;-83
2022/05/26 04:12:37;;;;;;;19.98;7.95;;;;;;;14.08;100.00;101530.25;5118369;28;20042;-83
2022/05/26 04:15:05;;;;;;;26.50;8.27;;;;;;;14.12;100.00;101531.75;5083841;28;20038;-82
2022/05/26 04:17:31;;;;;;;26.20;8.52;;;;;;;14.24;100.00;101540.00;5087612;28;20059;-83
2022/05/26 04:19:56;;;;;;;27.10;9.27;;;;;;;14.18;100.00;101533.13;5107715;28;20027;-82
2022/05/26 04:22:23;;;;;;;27.75;8.70;;;;;;;14.21;100.00;101532.00;5102027;28;20070;-83
2022/05/26 04:24:55;;;;;;;29.85;8.45;;;;;;;14.30;100.00;101525.72;5088956;27;20035;-80
2022/05/26 04:27:26;;;;;;;35.80;9.15;;;;;;;14.11;100.00;101524.50;5102790;28;20119;-83
2022/05/26 04:29:52;;;;;;;26.80;9.00;;;;;;;14.23;100.00;101538.25;5084522;28;20042;-82
2022/05/26 04:32:18;;;;;;;25.52;8.32;;;;;;;14.28;100.00;101547.91;5097576;28;20036;-82
2022/05/26 04:34:48;;;;;;;33.95;9.38;;;;;;;14.20;100.00;101544.00;5098238;28;20032;-81
2022/05/26 04:37:16;;;;;;;26.20;8.50;;;;;;;14.29;100.00;101555.13;5098658;28;20102;-81
2022/05/26 04:39:41;;;;;;;22.35;8.02;;;;;;;14.28;100.00;101541.50;5083455;28;20032;-82
2022/05/26 04:42:07;;;;;;;33.10;8.77;;;;;;;14.32;100.00;101552.13;5103906;28;20042;-81
2022/05/26 04:44:36;;;;;;;32.72;7.35;;;;;;;14.21;100.00;101554.91;5084408;28;20034;-83
2022/05/26 04:47:02;;;;;;;30.90;8.85;;;;;;;14.19;100.00;101548.66;5091131;28;20340;-82
2022/05/26 04:49:28;;;;;;;26.40;9.27;;;;;;;14.11;100.00;101554.78;5081701;28;20066;-82
2022/05/26 04:51:54;;;;;;;46.65;12.20;;;;;;;14.19;100.00;101556.06;5110896;28;20046;-80
2022/05/26 04:54:20;;;;;;;38.80;10.45;;;;;;;14.23;100.00;101552.91;5101119;28;20034;-83
2022/05/26 04:56:46;;;;;;;29.88;8.10;;;;;;;14.30;100.00;101556.03;5084161;28;20070;-81
2022/05/26 04:59:12;;;;;;;26.83;7.47;;;;;;;14.34;100.00;101560.25;5098214;28;20391;-81
2022/05/26 05:01:38;;;;;;;36.38;8.75;;;;;;;14.37;100.00;101571.03;5081706;28;20048;-83
2022/05/26 05:04:03;;;;;;;36.58;7.40;;;;;;;14.36;100.00;101576.66;5092046;28;20032;-83
2022/05/26 05:06:29;;;;;;;35.63;8.55;;;;;;;14.22;100.00;101573.19;5093912;28;20040;-81
2022/05/26 05:08:55;;;;;;;33.08;8.18;;;;;;;14.27;100.00;101583.84;5103881;28;20099;-80
2022/05/26 05:11:21;;;;;;;30.33;7.75;;;;;;;14.42;100.00;101562.38;5090654;27;20065;-80
2022/05/26 05:13:47;;;;;;;31.98;7.60;;;;;;;14.30;100.00;101576.19;5075703;28;20374;-81
2022/05/26 05:16:29;;;;;;;32.67;7.57;;;;;;;14.72;100.00;101577.34;5086192;28;20110;-82
2022/05/26 05:18:56;;;;;;;27.63;6.35;;;;;;;14.87;100.00;101585.19;5083679;28;20114;-81
2022/05/26 05:21:34;;;;;;;29.25;7.38;;;;;;;14.67;100.00;101575.84;5076187;28;20034;-83
2022/05/26 05:24:07;;;;;;;27.60;7.05;;;;;;;14.87;100.00;101587.06;5104166;28;20059;-82
2022/05/26 05:26:37;;;;;;;31.30;7.10;;;;;;;14.77;100.00;101599.88;5097101;28;20027;-82
2022/05/26 05:29:10;;;;;;;29.08;6.53;;;;;;;14.93;100.00;101599.47;5074089;27;20050;-82
2022/05/26 05:31:42;;;;;;;28.55;6.55;;;;;;;14.66;100.00;101611.84;5111972;27;20403;-83
2022/05/26 05:34:14;;;;;;;31.98;7.13;;;;;;;14.84;100.00;101615.78;5113871;28;20084;-83
2022/05/26 05:36:40;;;;;;;24.58;6.43;;;;;;;14.77;100.00;101620.03;5086572;28;20020;-83
2022/05/26 05:39:05;;;;;;;30.90;7.45;;;;;;;15.02;100.00;101612.44;5068970;28;20398;-83
2022/05/26 05:41:34;;;;;;;23.27;7.00;;;;;;;14.86;100.00;101607.38;5076968;28;20024;-82
2022/05/26 05:44:01;;;;;;;22.35;6.68;;;;;;;14.97;100.00;101607.34;5094609;28;20027;-82
2022/05/26 05:46:34;;;;;;;32.53;7.65;;;;;;;15.02;100.00;101613.34;5098946;28;20027;-84
2022/05/26 05:49:04;;;;;;;30.58;7.07;;;;;;;15.13;100.00;101619.81;5089275;28;20099;-84
2022/05/26 05:51:31;;;;;;;35.50;6.78;;;;;;;15.10;100.00;101625.56;5088413;28;20024;-83
2022/05/26 05:53:57;;;;;;;24.02;6.90;;;;;;;15.01;100.00;101611.56;5107257;28;20035;-83
2022/05/26 05:56:23;;;;;;;30.90;7.55;;;;;;;15.15;100.00;101624.19;5068722;28;20055;-83
2022/05/26 05:58:48;;;;;;;34.85;8.73;;;;;;;15.05;100.00;101626.88;5087818;28;20035;-82
2022/05/26 06:01:35;;;;;;;43.88;8.95;;;;;;;14.94;100.00;101632.41;5068732;28;20035;-83
2022/05/26 06:04:25;;;;;;;27.23;7.80;;;;;;;15.11;100.00;101639.25;5104201;28;20044;-82
2022/05/26 06:06:51;;;;;;;32.65;8.27;;;;;;;15.25;100.00;101641.69;5082396;28;20035;-83
2022/05/26 06:09:17;;;;;;;29.02;9.15;;;;;;;15.11;100.00;101632.84;5073501;28;20027;-82
2022/05/26 06:11:45;;;;;;;33.13;8.05;;;;;;;15.18;100.00;101634.06;5067297;28;20503;-82
2022/05/26 06:14:10;;;;;;;31.75;8.70;;;;;;;15.17;100.00;101638.72;5096143;28;20046;-82
2022/05/26 06:16:37;;;;;;;34.03;8.57;;;;;;;15.24;100.00;101637.16;5084265;28;20039;-83
2022/05/26 06:19:03;;;;;;;29.70;7.93;;;;;;;15.55;100.00;101650.19;5053917;28;20375;-82
2022/05/26 06:21:29;;;;;;;33.45;8.32;;;;;;;15.79;100.00;101639.78;5098180;28;20444;-82
2022/05/26 06:23:56;;;;;;;31.55;8.60;;;;;;;15.71;100.00;101652.47;5102092;28;20474;-82
2022/05/26 06:26:27;;;;;;;30.88;9.20;;;;;;;15.57;100.00;101653.69;5083229;28;20156;-82
2022/05/26 06:31:37;;;;;;;30.85;9.15;;;;;;;16.14;100.00;101662.50;5118451;27;20043;-82
2022/05/26 06:39:31;;;;;;;32.50;10.10;;;;;;;16.66;100.00;101662.38;5111696;28;20122;-81
2022/05/26 06:42:06;;;;;;;30.17;9.60;;;;;;;16.56;100.00;101665.16;5080436;28;20083;-83
2022/05/26 06:44:33;;;;;;;27.52;8.15;;;;;;;16.37;100.00;101668.69;5077942;28;20051;-81
2022/05/26 06:46:59;;;;;;;28.08;8.88;;;;;;;16.95;100.00;101676.31;5088377;28;20054;-81
2022/05/26 06:49:24;;;;;;;26.52;8.80;;;;;;;16.23;100.00;101667.16;5058751;27;20051;-82
2022/05/26 06:51:50;;;;;;;32.38;9.02;;;;;;;16.72;100.00;101676.53;5082674;28;20521;-83
2022/05/26 06:54:15;;;;;;;25.70;9.48;;;;;;;16.67;100.00;101678.81;5102609;28;20035;-82
2022/05/26 06:56:41;;;;;;;33.63;10.68;;;;;;;16.60;100.00;101685.09;5112025;27;20085;-82
2022/05/26 06:59:06;;;;;;;25.55;10.48;;;;;;;16.37;100.00;101692.72;5107874;28;20043;-82
2022/05/26 07:01:32;;;;;;;35.95;10.82;;;;;;;16.26;100.00;101679.84;5090366;27;20038;-80
2022/05/26 07:03:58;;;;;;;33.22;10.98;;;;;;;16.19;100.00;101686.97;5133388;27;20506;-81
2022/05/26 07:06:27;;;;;;;32.95;11.93;;;;;;;16.44;100.00;101693.91;5117026;27;20094;-82
2022/05/26 07:08:53;;;;;;;31.73;11.95;;;;;;;16.93;100.00;101694.94;5089826;28;20100;-81
2022/05/26 07:11:20;;;;;;;39.20;13.18;;;;;;;17.25;100.00;101699.38;5090771;28;20028;-79
2022/05/26 07:13:46;;;;;;;37.65;14.27;;;;;;;17.39;100.00;101704.47;5076688;27;20487;-81
2022/05/26 07:16:13;;;;;;;27.83;12.55;;;;;;;17.72;100.00;101705.03;5093826;28;20031;-82
2022/05/26 07:18:40;;;;;;;30.70;14.13;;;;;;;16.93;100.00;101710.69;5090388;28;20744;-81
2022/05/26 07:21:08;;;;;;;39.40;14.30;;;;;;;17.61;100.00;101721.81;5079513;28;20129;-81
2022/05/26 07:23:34;;;;;;;43.55;15.45;;;;;;;17.26;100.00;101713.03;5098789;28;20035;-84
2022/05/26 07:26:05;;;;;;;34.10;16.15;;;;;;;17.31;100.00;101712.63;5062970;28;20039;-82
2022/05/26 07:28:32;;;;;;;34.55;15.38;;;;;;;17.49;100.00;101711.91;5073099;28;20038;-82
2022/05/26 07:30:58;;;;;;;32.60;16.15;;;;;;;17.31;100.00;101725.59;5090849;28;20035;-80
2022/05/26 07:33:23;;;;;;;35.10;16.25;;;;;;;17.17;100.00;101718.59;5063109;28;20100;-81
2022/05/26 07:35:49;;;;;;;33.25;17.08;;;;;;;17.20;100.00;101713.66;5080287;27;21920;-82
2022/05/26 07:41:17;;;;;;;28.95;16.70;;;;;;;17.62;100.00;101729.97;5069052;28;20035;-81
2022/05/26 07:43:48;;;;;;;36.20;17.17;;;;;;;17.37;100.00;101728.66;5081035;27;20036;-81
2022/05/26 07:46:15;;;;;;;32.03;17.38;;;;;;;17.97;100.00;101739.59;5109676;27;20032;-81
2022/05/26 07:48:40;;;;;;;32.78;17.10;;;;;;;18.22;100.00;101731.69;5096979;27;20430;-81
2022/05/26 07:51:06;;;;;;;32.88;16.83;;;;;;;18.31;100.00;101736.28;5106592;28;20043;-80
2022/05/26 07:53:31;;;;;;;42.88;19.00;;;;;;;17.08;100.00;101743.31;5062159;28;20763;-80
2022/05/26 07:55:57;;;;;;;36.85;19.23;;;;;;;16.96;100.00;101740.84;5079646;27;20031;-81
2022/05/26 07:58:23;;;;;;;35.58;19.45;;;;;;;17.18;100.00;101732.25;5065940;27;20038;-81
2022/05/26 08:00:52;;;;;;;34.72;19.45;;;;;;;17.58;100.00;101745.13;5060421;28;20081;-80
2022/05/26 08:03:17;;;;;;;42.60;21.80;;;;;;;17.74;100.00;101755.66;5079947;28;20119;-81
2022/05/26 08:05:44;;;;;;;41.50;19.80;;;;;;;18.22;100.00;101750.19;5095165;28;20103;-82
2022/05/26 08:08:09;;;;;;;40.75;20.75;;;;;;;17.91;100.00;101750.41;5048895;28;20040;-81
2022/05/26 08:10:35;;;;;;;32.00;18.98;;;;;;;17.78;100.00;101750.69;5101144;28;20036;-81
2022/05/26 08:13:00;;;;;;;44.90;22.30;;;;;;;16.96;100.00;101750.00;5095130;28;20032;-81
2022/05/26 08:15:27;;;;;;;43.80;21.90;;;;;;;16.90;100.00;101756.09;5097750;27;20130;-80
2022/05/26 08:17:52;;;;;;;42.58;22.63;;;;;;;16.78;100.00;101751.66;5078904;28;20033;-79
2022/05/26 08:20:18;;;;;;;35.03;21.15;;;;;;;18.32;100.00;101759.38;5078177;28;20031;-80
2022/05/26 08:22:43;;;;;;;37.33;19.60;;;;;;;18.19;100.00;101762.47;5098108;28;20571;-80
2022/05/26 08:25:10;;;;;;;42.47;19.98;;;;;;;18.74;100.00;101767.22;5116365;28;20066;-80
2022/05/26 08:27:35;;;;;;;41.53;18.27;;;;;;;18.94;100.00;101769.94;5089510;28;20091;-81
2022/05/26 08:30:01;;;;;;;34.25;18.70;;;;;;;19.18;100.00;101767.47;5110795;27;20028;-82
2022/05/26 08:32:27;;;;;;;33.53;19.00;;;;;;;19.95;100.00;101767.94;5105729;28;20490;-81
2022/05/26 08:35:01;;;;;;;34.08;19.27;;;;;;;19.07;100.00;101767.69;5096681;28;20030;-80
2022/05/26 08:37:27;;;;;;;33.08;18.60;;;;;;;19.38;100.00;101761.78;5097383;28;20144;-82
2022/05/26 08:39:53;;;;;;;34.70;18.33;;;;;;;19.67;100.00;101757.94;5095269;28;20095;-82
2022/05/26 08:42:29;;;;;;;42.38;20.75;;;;;;;19.42;100.00;101772.44;5073001;28;20108;-80
2022/05/26 08:45:01;;;;;;;40.28;19.65;;;;;;;20.06;100.00;101763.16;5101737;28;20032;-79
2022/05/26 08:47:45;;;;;;;38.55;18.90;;;;;;;19.93;100.00;101758.88;5101764;27;20024;-79
2022/05/26 08:50:27;;;;;;;36.25;17.25;;;;;;;20.61;99.22;101767.53;5109089;27;20055;-80
2022/05/26 08:53:24;;;;;;;28.40;16.37;;;;;;;20.98;94.38;101764.44;5077466;28;20020;-79
2022/05/26 08:55:52;;;;;;;26.63;16.02;;;;;;;20.47;97.58;101775.44;5097814;28;20055;-82
2022/05/26 08:58:22;;;;;;;36.17;17.63;;;;;;;19.72;100.00;101764.75;5111670;27;20036;-81
2022/05/26 09:00:50;;;;;;;37.83;18.70;;;;;;;19.75;100.00;101774.69;5098398;28;20038;-80
2022/05/26 09:03:28;;;;;;;30.83;17.92;;;;;;;19.75;100.00;101772.78;5099308;27;20038;-80
2022/05/26 09:06:11;;;;;;;33.03;17.52;;;;;;;19.87;98.55;101781.75;5102430;28;20728;-79
2022/05/26 09:14:09;;;;;;;37.45;16.05;;;;;;;20.83;93.57;101788.38;5112112;28;20092;-79
2022/05/26 09:16:41;;;;;;;39.15;16.58;;;;;;;19.95;94.85;101781.81;5085475;28;20050;-78
2022/05/26 09:19:21;;;;;;;26.75;15.30;;;;;;;21.01;90.67;101789.16;5100382;28;20023;-78
2022/05/26 09:21:51;;;;;;;29.02;14.38;;;;;;;20.69;92.00;101789.88;5116472;27;20038;-79
2022/05/26 09:24:31;;;;;;;28.45;14.88;;;;;;;19.88;92.73;101789.06;5065178;28;20436;-79
2022/05/26 09:27:00;;;;;;;29.83;16.13;;;;;;;20.55;91.12;101794.13;5100627;28;20027;-79
2022/05/26 09:29:32;;;;;;;34.38;16.70;;;;;;;19.18;96.27;101797.16;5119418;28;20035;-78
2022/05/26 09:32:00;;;;;;;30.10;16.25;;;;;;;19.56;94.64;101803.47;5106893;27;20432;-79
2022/05/26 09:34:28;;;;;;;25.65;15.25;;;;;;;20.61;91.24;101796.25;5086629;28;20462;-81
2022/05/26 09:37:00;;;;;;;27.02;14.40;;;;;;;21.39;87.25;101805.50;5087097;28;20032;-81
2022/05/26 09:39:34;;;;;;;36.42;14.48;;;;;;;21.19;88.35;101800.19;5086995;28;20036;-80
2022/05/26 09:42:03;;;;;;;27.60;13.75;;;;;;;21.69;86.65;101806.81;5100273;27;20038;-82
2022/05/26 09:44:47;;;;;;;22.75;12.38;;;;;;;21.33;82.71;101807.03;5084800;27;20043;-83
2022/05/26 09:47:39;;;;;;;26.25;13.40;;;;;;;20.64;85.03;101809.84;5083863;28;20043;-82
2022/05/26 09:50:14;;;;;;;35.25;12.18;;;;;;;19.90;89.99;101813.94;5111594;27;20483;-80
2022/05/26 09:52:49;;;;;;;25.88;12.27;;;;;;;19.31;93.06;101799.56;5092985;27;20043;-83
2022/05/26 09:59:01;;;;;;;26.60;11.80;;;;;;;21.36;83.56;101820.63;5100321;28;20039;-82
2022/05/26 10:01:26;;;;;;;27.30;11.70;;;;;;;21.83;81.11;101816.44;5081912;28;20467;-81
2022/05/26 10:04:16;;;;;;;20.98;10.23;;;;;;;21.54;81.69;101800.16;5090329;27;20091;-80
2022/05/26 10:07:04;;;;;;;21.98;10.50;;;;;;;20.15;87.34;101823.34;5088709;28;20081;-82
2022/05/26 10:09:52;;;;;;;23.77;9.15;;;;;;;20.22;85.27;101816.13;5119094;27;20030;-80
2022/05/26 10:12:46;;;;;;;28.95;10.23;;;;;;;19.63;87.54;101811.03;5101499;28;20036;-80
2022/05/26 10:15:40;;;;;;;19.00;10.10;;;;;;;20.36;86.67;101817.44;5093908;28;20031;-80
2022/05/26 10:18:17;;;;;;;20.05;10.07;;;;;;;21.04;82.12;101818.59;5099650;28;20036;-80
2022/05/26 10:20:51;;;;;;;23.63;9.45;;;;;;;20.94;83.00;101815.94;5099336;28;20076;-81
2022/05/26 10:23:34;;;;;;;19.45;8.50;;;;;;;20.36;86.30;101820.22;5096406;27;20143;-82
2022/05/26 10:26:24;;;;;;;21.95;9.15;;;;;;;20.10;86.79;101828.53;5097222;28;20023;-81
2022/05/26 10:29:07;;;;;;;18.77;8.82;;;;;;;19.79;89.59;101823.38;5098054;28;20107;-80
2022/05/26 10:31:51;;;;;;;19.88;9.75;;;;;;;19.09;91.80;101832.28;5118508;27;20035;-81
2022/05/26 10:34:20;;;;;;;20.00;10.60;;;;;;;19.21;92.75;101828.25;5098493;28;20036;-81
2022/05/26 10:37:20;;;;;;;21.98;10.70;;;;;;;19.23;92.16;101836.44;5119013;28;20043;-82
2022/05/26 10:40:00;;;;;;;21.85;10.80;;;;;;;19.37;93.70;101840.59;5099101;28;20027;-81
2022/05/26 10:42:36;;;;;;;29.05;11.07;;;;;;;19.27;92.11;101835.09;5101969;28;20079;-81
2022/05/26 10:45:13;;;;;;;25.08;10.95;;;;;;;20.22;89.08;101832.81;5120398;27;20028;-79
2022/05/26 10:48:03;;;;;;;21.58;10.35;;;;;;;21.37;83.25;101830.75;5092385;28;20391;-79
2022/05/26 10:50:38;;;;;;;20.17;10.80;;;;;;;20.68;85.24;101822.41;5063966;28;20058;-79
2022/05/26 10:53:45;;;;;;;18.13;9.05;;;;;;;20.39;86.85;101819.91;5075211;28;20433;-79
2022/05/26 10:56:29;;;;;;;25.13;8.88;;;;;;;20.68;86.23;101824.31;5059686;28;20054;-78
2022/05/26 10:59:10;;;;;;;21.58;8.73;;;;;;;20.61;86.24;101821.28;5097134;28;20034;-80
2022/05/26 11:01:45;;;;;;;24.52;8.25;;;;;;;20.30;85.07;101827.31;5073708;28;20130;-80
2022/05/26 11:04:30;;;;;;;17.77;8.40;;;;;;;19.93;88.05;101825.59;5095746;28;20027;-80
2022/05/26 11:07:00;;;;;;;17.48;8.38;;;;;;;19.27;90.20;101829.56;5094422;28;20042;-79
2022/05/26 11:09:41;;;;;;;17.02;8.07;;;;;;;20.44;86.91;101827.75;5076449;28;20028;-79
2022/05/26 11:12:17;;;;;;;24.88;8.10;;;;;;;20.96;83.38;101830.56;5075584;28;20154;-79
2022/05/26 11:18:01;;;;;;;19.30;7.95;;;;;;;20.10;86.99;101831.31;5116510;28;20036;-79
2022/05/26 11:20:38;;;;;;;21.45;7.70;;;;;;;19.47;89.25;101833.09;5092426;28;20407;-80
2022/05/26 11:23:04;;;;;;;14.70;7.18;;;;;;;19.45;90.71;101832.38;5080751;28;20028;-79
2022/05/26 11:25:34;;;;;;;25.73;6.93;;;;;;;19.95;90.00;101831.00;5093620;28;20058;-83
2022/05/26 11:28:13;;;;;;;16.55;6.70;;;;;;;20.89;84.56;101829.47;5079588;28;20441;-80
2022/05/26 11:36:29;;;;;;;21.75;6.97;;;;;;;20.28;86.12;101826.59;5111731;27;20052;-81
2022/05/26 11:38:55;;;;;;;17.25;7.30;;;;;;;19.93;86.12;101817.25;5091891;28;20507;-81
2022/05/26 11:42:05;;;;;;;25.50;8.00;;;;;;;19.20;89.89;101832.06;5073850;28;20055;-81
2022/05/26 11:45:13;;;;;;;22.17;7.97;;;;;;;19.55;89.02;101827.63;5094931;28;20135;-82
2022/05/26 11:48:00;;;;;;;20.27;7.38;;;;;;;19.59;88.98;101823.47;5069268;27;20048;-81
2022/05/26 11:50:28;;;;;;;22.25;8.23;;;;;;;19.83;88.26;101825.69;5098387;28;20427;-80
2022/05/26 11:52:53;;;;;;;20.27;7.80;;;;;;;20.53;85.99;101821.25;5092060;28;20122;-81
2022/05/26 11:55:45;;;;;;;17.13;8.68;;;;;;;20.21;86.05;101817.16;5093839;28;20139;-81
2022/05/26 11:58:32;;;;;;;23.65;9.15;;;;;;;19.98;84.92;101814.00;5074954;28;20043;-80
2022/05/26 12:01:21;;;;;;;19.77;7.72;;;;;;;20.23;84.86;101817.00;5095293;28;20532;-80
2022/05/26 12:03:54;;;;;;;23.80;8.80;;;;;;;20.00;87.21;101801.72;5078053;28;20036;-79
2022/05/26 12:06:33;;;;;;;21.85;8.68;;;;;;;20.59;84.33;101801.06;5095187;28;20032;-81
2022/05/26 12:09:02;;;;;;;20.40;8.93;;;;;;;20.65;83.77;101799.59;5094690;28;20406;-81
2022/05/26 12:11:54;;;;;;;26.83;9.10;;;;;;;20.79;83.35;101796.22;5059360;28;20051;-81